sensor_id;sensor_type;location;lat;lon;timestamp;temperature;humidity
41220;DHT22;26951;47.338;9.196;2023-11-19T00:01:34;7.50;90.10
41220;DHT22;26951;47.338;9.196;2023-11-19T00:04:18;7.60;90.00
41220;DHT22;26951;47.338;9.196;2023-11-19T00:07:02;7.70;89.60
41220;DHT22;26951;47.338;9.196;2023-11-19T00:09:48;7.70;89.90
41220;DHT22;26951;47.338;9.196;2023-11-19T00:12:33;7.80;89.80
41220;DHT22;26951;47.338;9.196;2023-11-19T00:15:18;7.80;89.90
41220;DHT22;26951;47.338;9.196;2023-11-19T00:18:02;7.80;89.90
41220;DHT22;26951;47.338;9.196;2023-11-19T00:20:49;7.90;90.00
41220;DHT22;26951;47.338;9.196;2023-11-19T00:23:33;7.90;90.30
41220;DHT22;26951;47.338;9.196;2023-11-19T00:26:17;7.80;90.80
41220;DHT22;26951;47.338;9.196;2023-11-19T00:29:01;7.90;90.90
41220;DHT22;26951;47.338;9.196;2023-11-19T00:31:46;8.00;90.50
41220;DHT22;26951;47.338;9.196;2023-11-19T00:34:30;8.00;90.70
41220;DHT22;26951;47.338;9.196;2023-11-19T00:37:15;8.10;90.50
41220;DHT22;26951;47.338;9.196;2023-11-19T00:39:59;8.10;90.00
41220;DHT22;26951;47.338;9.196;2023-11-19T00:42:43;8.20;89.30
41220;DHT22;26951;47.338;9.196;2023-11-19T00:45:27;8.20;89.10
41220;DHT22;26951;47.338;9.196;2023-11-19T00:48:12;8.20;88.40
41220;DHT22;26951;47.338;9.196;2023-11-19T00:50:56;8.20;88.50
41220;DHT22;26951;47.338;9.196;2023-11-19T00:53:41;8.10;88.90
41220;DHT22;26951;47.338;9.196;2023-11-19T00:56:25;8.10;89.40
41220;DHT22;26951;47.338;9.196;2023-11-19T00:59:09;8.10;89.80
41220;DHT22;26951;47.338;9.196;2023-11-19T01:01:53;8.20;89.60
41220;DHT22;26951;47.338;9.196;2023-11-19T01:04:37;8.20;89.20
41220;DHT22;26951;47.338;9.196;2023-11-19T01:07:22;8.30;89.20
41220;DHT22;26951;47.338;9.196;2023-11-19T01:10:08;8.30;89.00
41220;DHT22;26951;47.338;9.196;2023-11-19T01:12:52;8.30;90.30
41220;DHT22;26951;47.338;9.196;2023-11-19T01:15:36;8.40;90.30
41220;DHT22;26951;47.338;9.196;2023-11-19T01:18:20;8.40;90.40
41220;DHT22;26951;47.338;9.196;2023-11-19T01:21:05;8.50;90.30
41220;DHT22;26951;47.338;9.196;2023-11-19T01:23:49;8.50;90.90
41220;DHT22;26951;47.338;9.196;2023-11-19T01:26:34;8.60;90.60
41220;DHT22;26951;47.338;9.196;2023-11-19T01:29:18;8.70;90.30
41220;DHT22;26951;47.338;9.196;2023-11-19T01:32:04;8.70;89.90
41220;DHT22;26951;47.338;9.196;2023-11-19T01:34:48;8.70;90.10
41220;DHT22;26951;47.338;9.196;2023-11-19T01:37:32;8.80;89.20
41220;DHT22;26951;47.338;9.196;2023-11-19T01:40:21;8.80;90.00
41220;DHT22;26951;47.338;9.196;2023-11-19T01:43:06;8.80;90.10
41220;DHT22;26951;47.338;9.196;2023-11-19T01:45:50;8.90;88.20
41220;DHT22;26951;47.338;9.196;2023-11-19T01:48:34;9.00;87.10
41220;DHT22;26951;47.338;9.196;2023-11-19T01:51:20;9.00;85.90
41220;DHT22;26951;47.338;9.196;2023-11-19T01:54:05;9.00;85.60
41220;DHT22;26951;47.338;9.196;2023-11-19T01:56:50;9.10;84.90
41220;DHT22;26951;47.338;9.196;2023-11-19T01:59:34;9.20;84.50
41220;DHT22;26951;47.338;9.196;2023-11-19T02:04:51;9.20;84.20
41220;DHT22;26951;47.338;9.196;2023-11-19T02:07:36;9.30;83.70
41220;DHT22;26951;47.338;9.196;2023-11-19T02:10:20;9.30;83.30
41220;DHT22;26951;47.338;9.196;2023-11-19T02:13:04;9.30;82.90
41220;DHT22;26951;47.338;9.196;2023-11-19T02:15:50;9.40;82.60
41220;DHT22;26951;47.338;9.196;2023-11-19T02:18:34;9.40;82.20
41220;DHT22;26951;47.338;9.196;2023-11-19T02:21:18;9.50;81.20
41220;DHT22;26951;47.338;9.196;2023-11-19T02:24:08;9.40;81.50
41220;DHT22;26951;47.338;9.196;2023-11-19T02:27:13;9.40;81.30
41220;DHT22;26951;47.338;9.196;2023-11-19T02:30:00;9.40;82.60
41220;DHT22;26951;47.338;9.196;2023-11-19T02:32:44;9.40;82.10
41220;DHT22;26951;47.338;9.196;2023-11-19T02:35:28;9.40;82.80
41220;DHT22;26951;47.338;9.196;2023-11-19T02:38:14;9.40;82.80
41220;DHT22;26951;47.338;9.196;2023-11-19T02:40:59;9.40;82.20
41220;DHT22;26951;47.338;9.196;2023-11-19T02:43:46;9.40;82.50
41220;DHT22;26951;47.338;9.196;2023-11-19T02:46:32;9.50;81.80
41220;DHT22;26951;47.338;9.196;2023-11-19T02:49:16;9.50;81.50
41220;DHT22;26951;47.338;9.196;2023-11-19T02:52:00;9.50;81.30
41220;DHT22;26951;47.338;9.196;2023-11-19T02:54:44;9.50;80.80
41220;DHT22;26951;47.338;9.196;2023-11-19T02:57:31;9.50;80.50
41220;DHT22;26951;47.338;9.196;2023-11-19T03:00:19;9.40;81.50
41220;DHT22;26951;47.338;9.196;2023-11-19T03:03:08;9.50;80.90
41220;DHT22;26951;47.338;9.196;2023-11-19T03:06:01;9.50;79.80
41220;DHT22;26951;47.338;9.196;2023-11-19T03:08:50;9.60;78.20
41220;DHT22;26951;47.338;9.196;2023-11-19T03:11:34;9.60;78.50
41220;DHT22;26951;47.338;9.196;2023-11-19T03:14:18;9.50;79.30
41220;DHT22;26951;47.338;9.196;2023-11-19T03:17:02;9.50;79.70
41220;DHT22;26951;47.338;9.196;2023-11-19T03:19:47;9.60;78.60
41220;DHT22;26951;47.338;9.196;2023-11-19T03:22:32;9.60;78.60
41220;DHT22;26951;47.338;9.196;2023-11-19T03:25:17;9.60;77.90
41220;DHT22;26951;47.338;9.196;2023-11-19T03:28:03;9.70;77.20
41220;DHT22;26951;47.338;9.196;2023-11-19T03:30:47;9.70;77.70
41220;DHT22;26951;47.338;9.196;2023-11-19T03:33:31;9.60;78.30
41220;DHT22;26951;47.338;9.196;2023-11-19T03:36:16;9.50;78.90
41220;DHT22;26951;47.338;9.196;2023-11-19T03:39:01;9.50;79.40
41220;DHT22;26951;47.338;9.196;2023-11-19T03:41:47;9.50;80.20
41220;DHT22;26951;47.338;9.196;2023-11-19T03:44:31;9.50;80.90
41220;DHT22;26951;47.338;9.196;2023-11-19T03:47:16;9.50;81.40
41220;DHT22;26951;47.338;9.196;2023-11-19T03:50:01;9.50;81.50
41220;DHT22;26951;47.338;9.196;2023-11-19T03:52:47;9.50;81.80
41220;DHT22;26951;47.338;9.196;2023-11-19T03:55:31;9.50;81.30
41220;DHT22;26951;47.338;9.196;2023-11-19T03:58:17;9.50;81.80
41220;DHT22;26951;47.338;9.196;2023-11-19T04:01:01;9.40;82.70
41220;DHT22;26951;47.338;9.196;2023-11-19T04:03:46;9.40;83.30
41220;DHT22;26951;47.338;9.196;2023-11-19T04:06:30;9.50;82.90
41220;DHT22;26951;47.338;9.196;2023-11-19T04:09:14;9.50;83.10
41220;DHT22;26951;47.338;9.196;2023-11-19T04:11:59;9.40;83.80
41220;DHT22;26951;47.338;9.196;2023-11-19T04:14:44;9.40;83.90
41220;DHT22;26951;47.338;9.196;2023-11-19T04:17:28;9.40;84.10
41220;DHT22;26951;47.338;9.196;2023-11-19T04:20:12;9.40;84.20
41220;DHT22;26951;47.338;9.196;2023-11-19T04:22:57;9.40;84.40
41220;DHT22;26951;47.338;9.196;2023-11-19T04:25:44;9.50;83.80
41220;DHT22;26951;47.338;9.196;2023-11-19T04:28:28;9.50;84.20
41220;DHT22;26951;47.338;9.196;2023-11-19T04:31:12;9.40;84.40
41220;DHT22;26951;47.338;9.196;2023-11-19T04:33:56;9.40;84.20
41220;DHT22;26951;47.338;9.196;2023-11-19T04:36:40;9.40;84.90
41220;DHT22;26951;47.338;9.196;2023-11-19T04:39:24;9.40;85.30
41220;DHT22;26951;47.338;9.196;2023-11-19T04:42:09;9.40;85.10
41220;DHT22;26951;47.338;9.196;2023-11-19T04:44:53;9.40;84.40
41220;DHT22;26951;47.338;9.196;2023-11-19T04:47:37;9.40;84.40
41220;DHT22;26951;47.338;9.196;2023-11-19T04:50:21;9.40;84.50
41220;DHT22;26951;47.338;9.196;2023-11-19T04:53:05;9.40;85.20
41220;DHT22;26951;47.338;9.196;2023-11-19T04:55:49;9.40;85.20
41220;DHT22;26951;47.338;9.196;2023-11-19T04:58:33;9.30;85.30
41220;DHT22;26951;47.338;9.196;2023-11-19T05:01:18;9.30;85.60
41220;DHT22;26951;47.338;9.196;2023-11-19T05:04:02;9.40;85.30
41220;DHT22;26951;47.338;9.196;2023-11-19T05:06:46;9.40;85.80
41220;DHT22;26951;47.338;9.196;2023-11-19T05:09:31;9.30;85.90
41220;DHT22;26951;47.338;9.196;2023-11-19T05:12:15;9.30;85.90
41220;DHT22;26951;47.338;9.196;2023-11-19T05:14:59;9.30;85.80
41220;DHT22;26951;47.338;9.196;2023-11-19T05:17:44;9.30;85.80
41220;DHT22;26951;47.338;9.196;2023-11-19T05:20:29;9.30;86.10
41220;DHT22;26951;47.338;9.196;2023-11-19T05:23:13;9.30;86.10
41220;DHT22;26951;47.338;9.196;2023-11-19T05:25:57;9.30;86.20
41220;DHT22;26951;47.338;9.196;2023-11-19T05:28:42;9.30;86.10
41220;DHT22;26951;47.338;9.196;2023-11-19T05:31:26;9.20;86.80
41220;DHT22;26951;47.338;9.196;2023-11-19T05:34:10;9.20;86.80
41220;DHT22;26951;47.338;9.196;2023-11-19T05:36:55;9.20;87.40
41220;DHT22;26951;47.338;9.196;2023-11-19T05:39:39;9.20;86.40
41220;DHT22;26951;47.338;9.196;2023-11-19T05:42:24;9.20;85.60
41220;DHT22;26951;47.338;9.196;2023-11-19T05:45:10;9.30;85.80
41220;DHT22;26951;47.338;9.196;2023-11-19T05:47:55;9.20;86.50
41220;DHT22;26951;47.338;9.196;2023-11-19T05:50:39;9.20;87.10
41220;DHT22;26951;47.338;9.196;2023-11-19T05:53:23;9.20;87.00
41220;DHT22;26951;47.338;9.196;2023-11-19T05:56:09;9.20;86.60
41220;DHT22;26951;47.338;9.196;2023-11-19T05:58:53;9.20;87.00
41220;DHT22;26951;47.338;9.196;2023-11-19T06:01:37;9.20;86.80
41220;DHT22;26951;47.338;9.196;2023-11-19T06:04:21;9.10;87.00
41220;DHT22;26951;47.338;9.196;2023-11-19T06:07:05;9.10;87.00
41220;DHT22;26951;47.338;9.196;2023-11-19T06:09:49;9.10;86.70
41220;DHT22;26951;47.338;9.196;2023-11-19T06:12:34;9.20;86.50
41220;DHT22;26951;47.338;9.196;2023-11-19T06:15:21;9.20;85.90
41220;DHT22;26951;47.338;9.196;2023-11-19T06:18:05;9.10;86.10
41220;DHT22;26951;47.338;9.196;2023-11-19T06:20:49;9.10;86.20
41220;DHT22;26951;47.338;9.196;2023-11-19T06:23:33;9.00;87.40
41220;DHT22;26951;47.338;9.196;2023-11-19T06:26:17;9.00;88.00
41220;DHT22;26951;47.338;9.196;2023-11-19T06:29:02;9.00;87.90
41220;DHT22;26951;47.338;9.196;2023-11-19T06:31:46;9.10;88.20
41220;DHT22;26951;47.338;9.196;2023-11-19T06:34:34;9.00;87.10
41220;DHT22;26951;47.338;9.196;2023-11-19T06:37:18;9.00;88.00
41220;DHT22;26951;47.338;9.196;2023-11-19T06:40:03;9.00;87.50
41220;DHT22;26951;47.338;9.196;2023-11-19T06:42:49;9.00;88.50
41220;DHT22;26951;47.338;9.196;2023-11-19T06:45:33;9.10;87.40
41220;DHT22;26951;47.338;9.196;2023-11-19T06:48:17;9.00;87.70
41220;DHT22;26951;47.338;9.196;2023-11-19T06:51:05;9.00;88.20
41220;DHT22;26951;47.338;9.196;2023-11-19T06:53:49;9.00;88.20
41220;DHT22;26951;47.338;9.196;2023-11-19T06:56:33;9.00;87.80
41220;DHT22;26951;47.338;9.196;2023-11-19T06:59:17;9.00;88.00
41220;DHT22;26951;47.338;9.196;2023-11-19T07:02:01;9.00;88.30
41220;DHT22;26951;47.338;9.196;2023-11-19T07:04:45;8.90;88.80
41220;DHT22;26951;47.338;9.196;2023-11-19T07:07:30;9.00;89.20
41220;DHT22;26951;47.338;9.196;2023-11-19T07:10:14;9.10;88.00
41220;DHT22;26951;47.338;9.196;2023-11-19T07:12:59;9.00;88.80
41220;DHT22;26951;47.338;9.196;2023-11-19T07:15:44;9.00;89.20
41220;DHT22;26951;47.338;9.196;2023-11-19T07:18:28;8.90;90.00
41220;DHT22;26951;47.338;9.196;2023-11-19T07:21:12;8.90;90.20
41220;DHT22;26951;47.338;9.196;2023-11-19T07:23:56;9.00;90.00
41220;DHT22;26951;47.338;9.196;2023-11-19T07:26:43;9.10;89.40
41220;DHT22;26951;47.338;9.196;2023-11-19T07:29:27;9.10;88.70
41220;DHT22;26951;47.338;9.196;2023-11-19T07:32:11;9.00;90.10
41220;DHT22;26951;47.338;9.196;2023-11-19T07:34:57;9.00;90.20
41220;DHT22;26951;47.338;9.196;2023-11-19T07:37:42;9.10;90.00
41220;DHT22;26951;47.338;9.196;2023-11-19T07:40:26;9.10;89.90
41220;DHT22;26951;47.338;9.196;2023-11-19T07:43:10;9.10;90.20
41220;DHT22;26951;47.338;9.196;2023-11-19T07:45:54;9.10;90.30
41220;DHT22;26951;47.338;9.196;2023-11-19T07:48:41;9.10;90.40
41220;DHT22;26951;47.338;9.196;2023-11-19T07:51:26;9.10;90.40
41220;DHT22;26951;47.338;9.196;2023-11-19T07:54:10;9.20;90.30
41220;DHT22;26951;47.338;9.196;2023-11-19T07:56:54;9.20;90.30
41220;DHT22;26951;47.338;9.196;2023-11-19T07:59:39;9.20;90.20
41220;DHT22;26951;47.338;9.196;2023-11-19T08:02:23;9.20;90.00
41220;DHT22;26951;47.338;9.196;2023-11-19T08:05:07;9.20;89.90
41220;DHT22;26951;47.338;9.196;2023-11-19T08:07:51;9.20;90.00
41220;DHT22;26951;47.338;9.196;2023-11-19T08:10:36;9.20;90.00
41220;DHT22;26951;47.338;9.196;2023-11-19T08:13:21;9.30;90.20
41220;DHT22;26951;47.338;9.196;2023-11-19T08:16:06;9.20;90.10
41220;DHT22;26951;47.338;9.196;2023-11-19T08:18:50;9.30;90.10
41220;DHT22;26951;47.338;9.196;2023-11-19T08:21:35;9.30;90.10
41220;DHT22;26951;47.338;9.196;2023-11-19T08:24:19;9.40;90.00
41220;DHT22;26951;47.338;9.196;2023-11-19T08:27:03;9.40;89.40
41220;DHT22;26951;47.338;9.196;2023-11-19T08:29:47;9.40;89.50
41220;DHT22;26951;47.338;9.196;2023-11-19T08:32:31;9.40;89.80
41220;DHT22;26951;47.338;9.196;2023-11-19T08:35:16;9.40;90.20
41220;DHT22;26951;47.338;9.196;2023-11-19T08:38:00;9.40;90.30
41220;DHT22;26951;47.338;9.196;2023-11-19T08:40:44;9.40;90.40
41220;DHT22;26951;47.338;9.196;2023-11-19T08:43:28;9.40;90.40
41220;DHT22;26951;47.338;9.196;2023-11-19T08:46:13;9.40;90.50
41220;DHT22;26951;47.338;9.196;2023-11-19T08:48:57;9.50;90.20
41220;DHT22;26951;47.338;9.196;2023-11-19T08:51:41;9.50;89.90
41220;DHT22;26951;47.338;9.196;2023-11-19T08:54:25;9.60;89.40
41220;DHT22;26951;47.338;9.196;2023-11-19T08:57:10;9.60;90.10
41220;DHT22;26951;47.338;9.196;2023-11-19T08:59:54;9.50;90.30
41220;DHT22;26951;47.338;9.196;2023-11-19T09:02:38;9.50;90.50
41220;DHT22;26951;47.338;9.196;2023-11-19T09:05:22;9.50;90.70
41220;DHT22;26951;47.338;9.196;2023-11-19T09:08:06;9.60;90.60
41220;DHT22;26951;47.338;9.196;2023-11-19T09:10:51;9.60;90.50
41220;DHT22;26951;47.338;9.196;2023-11-19T09:13:35;9.60;90.80
41220;DHT22;26951;47.338;9.196;2023-11-19T09:16:20;9.60;91.10
41220;DHT22;26951;47.338;9.196;2023-11-19T09:19:04;9.60;90.40
41220;DHT22;26951;47.338;9.196;2023-11-19T09:21:48;9.70;90.50
41220;DHT22;26951;47.338;9.196;2023-11-19T09:24:33;9.70;90.50
41220;DHT22;26951;47.338;9.196;2023-11-19T09:27:17;9.70;90.60
41220;DHT22;26951;47.338;9.196;2023-11-19T09:30:01;9.70;90.50
41220;DHT22;26951;47.338;9.196;2023-11-19T09:32:46;9.70;90.40
41220;DHT22;26951;47.338;9.196;2023-11-19T09:35:30;9.70;90.60
41220;DHT22;26951;47.338;9.196;2023-11-19T09:38:14;9.70;91.30
41220;DHT22;26951;47.338;9.196;2023-11-19T09:40:59;9.70;90.70
41220;DHT22;26951;47.338;9.196;2023-11-19T09:43:45;9.70;91.00
41220;DHT22;26951;47.338;9.196;2023-11-19T09:46:30;9.80;90.90
41220;DHT22;26951;47.338;9.196;2023-11-19T09:49:14;9.80;90.70
41220;DHT22;26951;47.338;9.196;2023-11-19T09:52:02;9.80;90.60
41220;DHT22;26951;47.338;9.196;2023-11-19T09:54:47;9.90;90.50
41220;DHT22;26951;47.338;9.196;2023-11-19T09:57:32;9.90;90.50
41220;DHT22;26951;47.338;9.196;2023-11-19T10:00:19;10.00;90.10
41220;DHT22;26951;47.338;9.196;2023-11-19T10:03:07;10.00;89.90
41220;DHT22;26951;47.338;9.196;2023-11-19T10:05:54;10.00;90.00
41220;DHT22;26951;47.338;9.196;2023-11-19T10:08:39;10.00;90.10
41220;DHT22;26951;47.338;9.196;2023-11-19T10:11:24;10.10;90.20
41220;DHT22;26951;47.338;9.196;2023-11-19T10:14:09;10.10;90.30
41220;DHT22;26951;47.338;9.196;2023-11-19T10:16:54;10.10;90.40
41220;DHT22;26951;47.338;9.196;2023-11-19T10:19:42;10.10;90.30
41220;DHT22;26951;47.338;9.196;2023-11-19T10:22:27;10.10;90.20
41220;DHT22;26951;47.338;9.196;2023-11-19T10:25:28;10.10;90.30
41220;DHT22;26951;47.338;9.196;2023-11-19T10:28:15;10.10;90.40
41220;DHT22;26951;47.338;9.196;2023-11-19T10:31:00;10.20;90.30
41220;DHT22;26951;47.338;9.196;2023-11-19T10:33:45;10.20;90.30
41220;DHT22;26951;47.338;9.196;2023-11-19T10:36:39;10.20;90.30
41220;DHT22;26951;47.338;9.196;2023-11-19T10:39:54;10.20;90.40
41220;DHT22;26951;47.338;9.196;2023-11-19T10:42:38;10.20;90.50
41220;DHT22;26951;47.338;9.196;2023-11-19T10:45:23;10.20;90.40
41220;DHT22;26951;47.338;9.196;2023-11-19T10:48:08;10.20;90.40
41220;DHT22;26951;47.338;9.196;2023-11-19T10:50:53;10.30;90.50
41220;DHT22;26951;47.338;9.196;2023-11-19T10:53:39;10.30;90.40
41220;DHT22;26951;47.338;9.196;2023-11-19T10:56:25;10.40;90.50
41220;DHT22;26951;47.338;9.196;2023-11-19T10:59:13;10.40;90.60
41220;DHT22;26951;47.338;9.196;2023-11-19T11:01:57;10.30;90.60
41220;DHT22;26951;47.338;9.196;2023-11-19T11:04:44;10.40;90.70
41220;DHT22;26951;47.338;9.196;2023-11-19T11:07:31;10.40;90.60
41220;DHT22;26951;47.338;9.196;2023-11-19T11:10:17;10.40;90.90
41220;DHT22;26951;47.338;9.196;2023-11-19T11:13:05;10.30;91.30
41220;DHT22;26951;47.338;9.196;2023-11-19T11:15:50;10.40;90.70
41220;DHT22;26951;47.338;9.196;2023-11-19T11:18:35;10.30;91.00
41220;DHT22;26951;47.338;9.196;2023-11-19T11:21:24;10.40;90.90
41220;DHT22;26951;47.338;9.196;2023-11-19T11:27:58;10.50;90.20
41220;DHT22;26951;47.338;9.196;2023-11-19T11:40:02;10.50;90.20
41220;DHT22;26951;47.338;9.196;2023-11-19T11:42:54;10.50;90.30
41220;DHT22;26951;47.338;9.196;2023-11-19T11:45:39;10.60;90.10
41220;DHT22;26951;47.338;9.196;2023-11-19T11:48:28;10.60;89.50
41220;DHT22;26951;47.338;9.196;2023-11-19T11:51:14;10.60;90.00
41220;DHT22;26951;47.338;9.196;2023-11-19T11:53:58;10.60;90.10
41220;DHT22;26951;47.338;9.196;2023-11-19T11:57:01;10.60;90.20
41220;DHT22;26951;47.338;9.196;2023-11-19T11:59:49;10.60;90.10
41220;DHT22;26951;47.338;9.196;2023-11-19T12:02:34;10.70;89.50
41220;DHT22;26951;47.338;9.196;2023-11-19T12:05:18;10.70;88.60
41220;DHT22;26951;47.338;9.196;2023-11-19T12:08:06;10.80;87.40
41220;DHT22;26951;47.338;9.196;2023-11-19T12:10:52;10.70;87.40
41220;DHT22;26951;47.338;9.196;2023-11-19T12:13:56;10.70;88.70
41220;DHT22;26951;47.338;9.196;2023-11-19T12:16:42;10.70;88.70
41220;DHT22;26951;47.338;9.196;2023-11-19T12:19:27;10.70;88.10
41220;DHT22;26951;47.338;9.196;2023-11-19T12:22:11;10.70;88.10
41220;DHT22;26951;47.338;9.196;2023-11-19T12:24:56;10.70;87.80
41220;DHT22;26951;47.338;9.196;2023-11-19T12:27:45;10.70;87.60
41220;DHT22;26951;47.338;9.196;2023-11-19T12:30:29;10.70;87.40
41220;DHT22;26951;47.338;9.196;2023-11-19T12:33:14;10.70;87.80
41220;DHT22;26951;47.338;9.196;2023-11-19T12:35:58;10.70;88.70
41220;DHT22;26951;47.338;9.196;2023-11-19T12:38:45;10.70;89.10
41220;DHT22;26951;47.338;9.196;2023-11-19T12:41:29;10.70;89.50
41220;DHT22;26951;47.338;9.196;2023-11-19T12:44:14;10.80;89.40
41220;DHT22;26951;47.338;9.196;2023-11-19T12:47:06;10.70;89.40
41220;DHT22;26951;47.338;9.196;2023-11-19T12:49:57;10.80;88.50
41220;DHT22;26951;47.338;9.196;2023-11-19T12:52:55;10.80;89.20
41220;DHT22;26951;47.338;9.196;2023-11-19T12:55:40;10.80;89.20
41220;DHT22;26951;47.338;9.196;2023-11-19T12:58:31;10.90;88.50
41220;DHT22;26951;47.338;9.196;2023-11-19T13:01:18;10.90;88.30
41220;DHT22;26951;47.338;9.196;2023-11-19T13:04:15;10.90;88.70
41220;DHT22;26951;47.338;9.196;2023-11-19T13:07:00;10.90;89.50
41220;DHT22;26951;47.338;9.196;2023-11-19T13:09:45;10.90;89.20
41220;DHT22;26951;47.338;9.196;2023-11-19T13:12:29;10.90;89.60
41220;DHT22;26951;47.338;9.196;2023-11-19T13:15:23;10.90;89.80
41220;DHT22;26951;47.338;9.196;2023-11-19T13:18:08;10.90;89.80
41220;DHT22;26951;47.338;9.196;2023-11-19T13:20:52;11.00;90.00
41220;DHT22;26951;47.338;9.196;2023-11-19T13:23:37;11.00;89.40
41220;DHT22;26951;47.338;9.196;2023-11-19T13:26:21;11.10;89.40
41220;DHT22;26951;47.338;9.196;2023-11-19T13:29:06;11.10;89.50
41220;DHT22;26951;47.338;9.196;2023-11-19T13:31:50;11.10;86.70
41220;DHT22;26951;47.338;9.196;2023-11-19T13:34:34;11.10;86.60
41220;DHT22;26951;47.338;9.196;2023-11-19T13:37:18;11.10;85.80
41220;DHT22;26951;47.338;9.196;2023-11-19T13:40:04;11.10;85.80
41220;DHT22;26951;47.338;9.196;2023-11-19T13:42:48;11.10;84.10
41220;DHT22;26951;47.338;9.196;2023-11-19T13:45:33;11.10;84.70
41220;DHT22;26951;47.338;9.196;2023-11-19T13:48:17;11.10;85.40
41220;DHT22;26951;47.338;9.196;2023-11-19T13:51:01;11.10;85.40
41220;DHT22;26951;47.338;9.196;2023-11-19T13:53:45;11.10;85.80
41220;DHT22;26951;47.338;9.196;2023-11-19T13:56:29;11.10;85.70
41220;DHT22;26951;47.338;9.196;2023-11-19T13:59:13;11.10;85.40
41220;DHT22;26951;47.338;9.196;2023-11-19T14:01:57;11.20;84.10
41220;DHT22;26951;47.338;9.196;2023-11-19T14:04:42;11.20;84.30
41220;DHT22;26951;47.338;9.196;2023-11-19T14:07:26;11.20;83.50
41220;DHT22;26951;47.338;9.196;2023-11-19T14:10:10;11.30;82.70
41220;DHT22;26951;47.338;9.196;2023-11-19T14:12:55;11.30;82.80
41220;DHT22;26951;47.338;9.196;2023-11-19T14:15:39;11.30;82.40
41220;DHT22;26951;47.338;9.196;2023-11-19T14:18:23;11.30;82.50
41220;DHT22;26951;47.338;9.196;2023-11-19T14:21:07;11.30;82.80
41220;DHT22;26951;47.338;9.196;2023-11-19T14:23:52;11.20;82.10
41220;DHT22;26951;47.338;9.196;2023-11-19T14:26:37;11.20;81.80
41220;DHT22;26951;47.338;9.196;2023-11-19T14:29:21;11.20;81.00
41220;DHT22;26951;47.338;9.196;2023-11-19T14:32:05;11.30;80.70
41220;DHT22;26951;47.338;9.196;2023-11-19T14:34:50;11.30;81.00
41220;DHT22;26951;47.338;9.196;2023-11-19T14:37:34;11.30;79.80
41220;DHT22;26951;47.338;9.196;2023-11-19T14:40:18;11.30;77.10
41220;DHT22;26951;47.338;9.196;2023-11-19T14:43:05;11.30;77.30
41220;DHT22;26951;47.338;9.196;2023-11-19T14:45:50;11.30;77.50
41220;DHT22;26951;47.338;9.196;2023-11-19T14:48:34;11.30;75.20
41220;DHT22;26951;47.338;9.196;2023-11-19T14:51:18;11.30;75.90
41220;DHT22;26951;47.338;9.196;2023-11-19T14:54:06;11.20;76.80
41220;DHT22;26951;47.338;9.196;2023-11-19T14:56:50;11.20;78.00
41220;DHT22;26951;47.338;9.196;2023-11-19T14:59:36;11.20;77.80
41220;DHT22;26951;47.338;9.196;2023-11-19T15:02:20;11.20;78.40
41220;DHT22;26951;47.338;9.196;2023-11-19T15:05:07;11.10;79.70
41220;DHT22;26951;47.338;9.196;2023-11-19T15:07:53;11.10;79.40
41220;DHT22;26951;47.338;9.196;2023-11-19T15:10:38;11.10;79.70
41220;DHT22;26951;47.338;9.196;2023-11-19T15:13:22;11.10;80.00
41220;DHT22;26951;47.338;9.196;2023-11-19T15:16:06;11.10;80.00
41220;DHT22;26951;47.338;9.196;2023-11-19T15:18:51;11.10;79.90
41220;DHT22;26951;47.338;9.196;2023-11-19T15:21:36;11.10;79.90
41220;DHT22;26951;47.338;9.196;2023-11-19T15:24:20;11.10;80.30
41220;DHT22;26951;47.338;9.196;2023-11-19T15:27:05;11.10;80.30
41220;DHT22;26951;47.338;9.196;2023-11-19T15:29:49;11.20;79.00
41220;DHT22;26951;47.338;9.196;2023-11-19T15:32:33;11.10;79.30
41220;DHT22;26951;47.338;9.196;2023-11-19T15:35:18;11.10;80.10
41220;DHT22;26951;47.338;9.196;2023-11-19T15:38:03;11.20;78.90
41220;DHT22;26951;47.338;9.196;2023-11-19T15:40:47;11.20;79.30
41220;DHT22;26951;47.338;9.196;2023-11-19T15:43:31;11.10;79.40
41220;DHT22;26951;47.338;9.196;2023-11-19T15:46:15;11.10;79.40
41220;DHT22;26951;47.338;9.196;2023-11-19T15:49:00;11.10;80.00
41220;DHT22;26951;47.338;9.196;2023-11-19T15:51:44;11.10;80.20
41220;DHT22;26951;47.338;9.196;2023-11-19T15:54:29;11.10;80.10
41220;DHT22;26951;47.338;9.196;2023-11-19T15:57:13;11.00;80.00
41220;DHT22;26951;47.338;9.196;2023-11-19T15:59:58;11.00;80.20
41220;DHT22;26951;47.338;9.196;2023-11-19T16:02:42;11.00;80.20
41220;DHT22;26951;47.338;9.196;2023-11-19T16:05:27;11.00;80.30
41220;DHT22;26951;47.338;9.196;2023-11-19T16:08:11;11.00;80.20
41220;DHT22;26951;47.338;9.196;2023-11-19T16:10:55;11.00;80.50
41220;DHT22;26951;47.338;9.196;2023-11-19T16:13:39;11.00;80.90
41220;DHT22;26951;47.338;9.196;2023-11-19T16:16:23;11.00;81.20
41220;DHT22;26951;47.338;9.196;2023-11-19T16:19:07;11.00;81.40
41220;DHT22;26951;47.338;9.196;2023-11-19T16:21:52;11.00;81.80
41220;DHT22;26951;47.338;9.196;2023-11-19T16:24:36;11.00;82.90
41220;DHT22;26951;47.338;9.196;2023-11-19T16:27:23;11.00;83.50
41220;DHT22;26951;47.338;9.196;2023-11-19T16:30:09;10.90;84.30
41220;DHT22;26951;47.338;9.196;2023-11-19T16:32:56;10.90;85.70
41220;DHT22;26951;47.338;9.196;2023-11-19T16:35:42;10.90;85.60
41220;DHT22;26951;47.338;9.196;2023-11-19T16:38:26;11.00;85.70
41220;DHT22;26951;47.338;9.196;2023-11-19T16:41:10;11.00;85.80
41220;DHT22;26951;47.338;9.196;2023-11-19T16:44:00;11.00;86.30
41220;DHT22;26951;47.338;9.196;2023-11-19T16:46:46;11.00;86.20
41220;DHT22;26951;47.338;9.196;2023-11-19T16:49:33;10.90;86.70
41220;DHT22;26951;47.338;9.196;2023-11-19T16:52:17;10.90;87.10
41220;DHT22;26951;47.338;9.196;2023-11-19T16:55:02;10.90;86.50
41220;DHT22;26951;47.338;9.196;2023-11-19T16:57:50;10.90;86.90
41220;DHT22;26951;47.338;9.196;2023-11-19T17:00:34;10.90;86.90
41220;DHT22;26951;47.338;9.196;2023-11-19T17:03:18;10.90;87.00
41220;DHT22;26951;47.338;9.196;2023-11-19T17:06:03;10.90;86.80
41220;DHT22;26951;47.338;9.196;2023-11-19T17:08:47;10.90;87.00
41220;DHT22;26951;47.338;9.196;2023-11-19T17:11:31;10.90;87.00
41220;DHT22;26951;47.338;9.196;2023-11-19T17:14:16;10.90;87.20
41220;DHT22;26951;47.338;9.196;2023-11-19T17:17:01;10.90;87.20
41220;DHT22;26951;47.338;9.196;2023-11-19T17:19:45;10.90;86.90
41220;DHT22;26951;47.338;9.196;2023-11-19T17:22:33;10.90;87.20
41220;DHT22;26951;47.338;9.196;2023-11-19T17:25:18;10.90;87.10
41220;DHT22;26951;47.338;9.196;2023-11-19T17:28:03;10.90;87.10
41220;DHT22;26951;47.338;9.196;2023-11-19T17:30:51;10.90;87.60
41220;DHT22;26951;47.338;9.196;2023-11-19T17:33:35;10.90;86.60
41220;DHT22;26951;47.338;9.196;2023-11-19T17:36:19;10.90;86.80
41220;DHT22;26951;47.338;9.196;2023-11-19T17:39:03;10.90;86.90
41220;DHT22;26951;47.338;9.196;2023-11-19T17:41:48;10.90;86.80
41220;DHT22;26951;47.338;9.196;2023-11-19T17:44:33;10.90;87.00
41220;DHT22;26951;47.338;9.196;2023-11-19T17:47:19;10.90;87.00
41220;DHT22;26951;47.338;9.196;2023-11-19T17:50:04;10.90;86.40